GAF310 SKCC-SPGM
Flight info
| Callsign | GAF310 |
|---|---|
| Flight time | 2h 36m |
| Altitude | 28000 |
| Route | UMPEX1C UMPEX DCT VVC DCT MUBOD DCT DORAN DCT COCOS |
| Aircraft | A400/H-SDE3FGHIRWY/L4T |
Departure
| Time | 2026-05-06 17:26 |
|---|---|
| Airport | Camilo Daza International Airport (SKCC) |
Arrival
| Time | 2026-05-06 20:03 |
|---|---|
| Airport | Tingo Maria Airport (SPGM) |
| Time | Latitude | Longitude | Altitude | Speed | Heading |
|---|---|---|---|---|---|
| 2026-05-06 16:16 | 7.92878 | -72.50929 | 1032 ft | 0 kts | 208° |
| 2026-05-06 17:17 | 7.92855 | -72.50943 | 1032 ft | 7 kts | 216° |
| 2026-05-06 17:17 | 7.92814 | -72.50991 | 1032 ft | 12 kts | 221° |
| 2026-05-06 17:17 | 7.92736 | -72.51027 | 1031 ft | 14 kts | 191° |
| 2026-05-06 17:18 | 7.92637 | -72.51057 | 1030 ft | 16 kts | 225° |
| 2026-05-06 17:18 | 7.92698 | -72.51138 | 1030 ft | 19 kts | 329° |
| 2026-05-06 17:18 | 7.92824 | -72.51213 | 1032 ft | 24 kts | 330° |
| 2026-05-06 17:18 | 7.92972 | -72.51301 | 1034 ft | 18 kts | 327° |
| 2026-05-06 17:19 | 7.93087 | -72.51374 | 1038 ft | 21 kts | 329° |
| 2026-05-06 17:19 | 7.93220 | -72.51454 | 1042 ft | 23 kts | 329° |
| 2026-05-06 17:19 | 7.93359 | -72.51539 | 1051 ft | 21 kts | 328° |
| 2026-05-06 17:19 | 7.93485 | -72.51613 | 1060 ft | 22 kts | 328° |
| 2026-05-06 17:20 | 7.93611 | -72.51692 | 1073 ft | 18 kts | 329° |
| 2026-05-06 17:20 | 7.93718 | -72.51754 | 1078 ft | 18 kts | 330° |
| 2026-05-06 17:20 | 7.93813 | -72.51846 | 1086 ft | 21 kts | 298° |
| 2026-05-06 17:20 | 7.93875 | -72.51961 | 1094 ft | 17 kts | 300° |
| 2026-05-06 17:21 | 7.93959 | -72.52029 | 1095 ft | 13 kts | 330° |
| 2026-05-06 17:21 | 7.94011 | -72.52036 | 1101 ft | 7 kts | 44° |
| 2026-05-06 17:21 | 7.94015 | -72.52030 | 1098 ft | 0 kts | 55° |
| 2026-05-06 17:25 | 7.94020 | -72.52024 | 1102 ft | 4 kts | 54° |
| 2026-05-06 17:25 | 7.94048 | -72.51983 | 1099 ft | 10 kts | 61° |
| 2026-05-06 17:26 | 7.94006 | -72.51923 | 1096 ft | 16 kts | 148° |
| 2026-05-06 17:26 | 7.93447 | -72.51586 | 1057 ft | 160 kts | 149° |
| 2026-05-06 17:26 | 7.92434 | -72.50909 | 2090 ft | 187 kts | 143° |
| 2026-05-06 17:26 | 7.91274 | -72.50034 | 3124 ft | 220 kts | 148° |
| 2026-05-06 17:27 | 7.89866 | -72.49276 | 4123 ft | 245 kts | 153° |
| 2026-05-06 17:27 | 7.88136 | -72.49057 | 5262 ft | 255 kts | 179° |
| 2026-05-06 17:27 | 7.86358 | -72.49153 | 6678 ft | 258 kts | 187° |
| 2026-05-06 17:27 | 7.84580 | -72.49611 | 7969 ft | 266 kts | 194° |
| 2026-05-06 17:28 | 7.82800 | -72.50189 | 9321 ft | 272 kts | 195° |
| 2026-05-06 17:28 | 7.80946 | -72.50650 | 10459 ft | 283 kts | 182° |
| 2026-05-06 17:28 | 7.78867 | -72.50516 | 10755 ft | 314 kts | 168° |
| 2026-05-06 17:28 | 7.76733 | -72.49978 | 11459 ft | 320 kts | 160° |
| 2026-05-06 17:29 | 7.74633 | -72.49201 | 12301 ft | 325 kts | 156° |
| 2026-05-06 17:29 | 7.72526 | -72.48326 | 13185 ft | 330 kts | 156° |
| 2026-05-06 17:29 | 7.70279 | -72.47688 | 14019 ft | 339 kts | 164° |
| 2026-05-06 17:29 | 7.67929 | -72.47275 | 14824 ft | 346 kts | 169° |
| 2026-05-06 17:30 | 7.65538 | -72.47005 | 15782 ft | 342 kts | 172° |
| 2026-05-06 17:30 | 7.63137 | -72.46951 | 16594 ft | 352 kts | 180° |
| 2026-05-06 17:30 | 7.60688 | -72.47238 | 17478 ft | 358 kts | 186° |
| 2026-05-06 17:30 | 7.58207 | -72.47718 | 18327 ft | 366 kts | 189° |
| 2026-05-06 17:31 | 7.55711 | -72.48333 | 19106 ft | 372 kts | 192° |
| 2026-05-06 17:31 | 7.53203 | -72.49028 | 19868 ft | 377 kts | 193° |
| 2026-05-06 17:31 | 7.50675 | -72.49721 | 20610 ft | 382 kts | 192° |
| 2026-05-06 17:31 | 7.48099 | -72.50419 | 21350 ft | 386 kts | 193° |
| 2026-05-06 17:32 | 7.45475 | -72.51122 | 22071 ft | 392 kts | 193° |
| 2026-05-06 17:32 | 7.42821 | -72.51827 | 22738 ft | 396 kts | 193° |
| 2026-05-06 17:32 | 7.40141 | -72.52533 | 23433 ft | 400 kts | 194° |
| 2026-05-06 17:32 | 7.37430 | -72.53245 | 24026 ft | 403 kts | 194° |
| 2026-05-06 17:33 | 7.34707 | -72.53956 | 24562 ft | 406 kts | 194° |
| 2026-05-06 17:33 | 7.31991 | -72.54668 | 25071 ft | 410 kts | 194° |
| 2026-05-06 17:33 | 7.29183 | -72.55405 | 25580 ft | 413 kts | 194° |
| 2026-05-06 17:33 | 7.26428 | -72.56126 | 26058 ft | 416 kts | 194° |
| 2026-05-06 17:34 | 7.23611 | -72.56859 | 26516 ft | 419 kts | 194° |
| 2026-05-06 17:34 | 7.20777 | -72.57593 | 26973 ft | 422 kts | 194° |
| 2026-05-06 17:34 | 7.17886 | -72.58345 | 27418 ft | 425 kts | 194° |
| 2026-05-06 17:34 | 7.15014 | -72.59092 | 27805 ft | 426 kts | 194° |
| 2026-05-06 17:35 | 7.12153 | -72.59839 | 27993 ft | 421 kts | 194° |
| 2026-05-06 17:35 | 7.06466 | -72.61314 | 28125 ft | 428 kts | 194° |
| 2026-05-06 17:36 | 6.97803 | -72.63558 | 28164 ft | 427 kts | 194° |
| 2026-05-06 17:36 | 6.92036 | -72.65049 | 28144 ft | 428 kts | 194° |
| 2026-05-06 17:37 | 6.86299 | -72.66527 | 28136 ft | 428 kts | 194° |
| 2026-05-06 17:37 | 6.80525 | -72.68013 | 28124 ft | 428 kts | 194° |
| 2026-05-06 17:38 | 6.74756 | -72.69503 | 28111 ft | 428 kts | 194° |
| 2026-05-06 17:38 | 6.69030 | -72.70981 | 28098 ft | 428 kts | 194° |
| 2026-05-06 17:39 | 6.63269 | -72.72467 | 28086 ft | 427 kts | 194° |
| 2026-05-06 17:39 | 6.57506 | -72.73946 | 28074 ft | 427 kts | 193° |
| 2026-05-06 17:40 | 6.51747 | -72.75428 | 28045 ft | 426 kts | 193° |
| 2026-05-06 17:40 | 6.45997 | -72.76912 | 28062 ft | 427 kts | 194° |
| 2026-05-06 17:41 | 6.40252 | -72.78386 | 28062 ft | 426 kts | 193° |
| 2026-05-06 17:41 | 6.34528 | -72.79856 | 28065 ft | 427 kts | 193° |
| 2026-05-06 17:42 | 6.28776 | -72.81339 | 28066 ft | 427 kts | 193° |
| 2026-05-06 17:42 | 6.23024 | -72.82816 | 28077 ft | 427 kts | 193° |
| 2026-05-06 17:43 | 6.17253 | -72.84296 | 28094 ft | 427 kts | 193° |
| 2026-05-06 17:43 | 6.11488 | -72.85783 | 28099 ft | 427 kts | 193° |
| 2026-05-06 17:44 | 6.05725 | -72.87264 | 28106 ft | 428 kts | 193° |
| 2026-05-06 17:44 | 5.99954 | -72.88747 | 28102 ft | 427 kts | 193° |
| 2026-05-06 17:45 | 5.94197 | -72.90226 | 28119 ft | 427 kts | 193° |
| 2026-05-06 17:45 | 5.88463 | -72.91697 | 28109 ft | 427 kts | 192° |
| 2026-05-06 17:46 | 5.82689 | -72.93181 | 28135 ft | 428 kts | 193° |
| 2026-05-06 17:46 | 5.76885 | -72.94679 | 28138 ft | 427 kts | 193° |
| 2026-05-06 17:47 | 5.71113 | -72.96158 | 28137 ft | 428 kts | 192° |
| 2026-05-06 17:47 | 5.65365 | -72.97629 | 28137 ft | 428 kts | 192° |
| 2026-05-06 17:48 | 5.59553 | -72.99118 | 28145 ft | 428 kts | 192° |
| 2026-05-06 17:48 | 5.53772 | -73.00598 | 28138 ft | 431 kts | 192° |
| 2026-05-06 17:49 | 5.47890 | -73.02098 | 28146 ft | 445 kts | 192° |
| 2026-05-06 17:49 | 5.41895 | -73.03634 | 28135 ft | 442 kts | 193° |
| 2026-05-06 17:50 | 5.35940 | -73.05159 | 28132 ft | 442 kts | 192° |
| 2026-05-06 17:50 | 5.29964 | -73.06689 | 28138 ft | 443 kts | 193° |
| 2026-05-06 17:51 | 5.23992 | -73.08218 | 28135 ft | 443 kts | 193° |
| 2026-05-06 17:51 | 5.17988 | -73.09757 | 28119 ft | 442 kts | 193° |
| 2026-05-06 17:52 | 5.12023 | -73.11284 | 28115 ft | 442 kts | 193° |
| 2026-05-06 17:52 | 5.06099 | -73.12802 | 28117 ft | 442 kts | 193° |
| 2026-05-06 17:53 | 5.00135 | -73.14327 | 28096 ft | 442 kts | 193° |
| 2026-05-06 17:53 | 4.94172 | -73.15855 | 28092 ft | 442 kts | 193° |
| 2026-05-06 17:54 | 4.88199 | -73.17388 | 28083 ft | 441 kts | 193° |
| 2026-05-06 17:54 | 4.82281 | -73.18896 | 28081 ft | 441 kts | 192° |
| 2026-05-06 17:55 | 4.76323 | -73.20419 | 28078 ft | 441 kts | 193° |
| 2026-05-06 17:55 | 4.70369 | -73.21940 | 28071 ft | 441 kts | 193° |
| 2026-05-06 17:56 | 4.64423 | -73.23461 | 28070 ft | 441 kts | 193° |
| 2026-05-06 17:56 | 4.58471 | -73.24984 | 28062 ft | 441 kts | 193° |
| 2026-05-06 17:57 | 4.52528 | -73.26504 | 28059 ft | 440 kts | 193° |
| 2026-05-06 17:57 | 4.46584 | -73.28023 | 28053 ft | 441 kts | 192° |
| 2026-05-06 17:58 | 4.40600 | -73.29552 | 28049 ft | 441 kts | 192° |
| 2026-05-06 17:58 | 4.34642 | -73.31073 | 28050 ft | 441 kts | 192° |
| 2026-05-06 17:59 | 4.28690 | -73.32595 | 28057 ft | 440 kts | 192° |
| 2026-05-06 17:59 | 4.22751 | -73.34111 | 28060 ft | 441 kts | 192° |
| 2026-05-06 18:00 | 4.17800 | -73.35375 | 28062 ft | 441 kts | 192° |
| 2026-05-06 18:00 | 4.11853 | -73.36895 | 28060 ft | 441 kts | 192° |
| 2026-05-06 18:01 | 4.04881 | -73.38399 | 28059 ft | 440 kts | 188° |
| 2026-05-06 18:01 | 3.99841 | -73.39302 | 28049 ft | 440 kts | 188° |
| 2026-05-06 18:02 | 3.93833 | -73.40328 | 28040 ft | 440 kts | 187° |
| 2026-05-06 18:02 | 3.87800 | -73.41343 | 28026 ft | 439 kts | 187° |
| 2026-05-06 18:03 | 3.81763 | -73.42353 | 28026 ft | 439 kts | 187° |
| 2026-05-06 18:03 | 3.75712 | -73.43359 | 28022 ft | 439 kts | 187° |
| 2026-05-06 18:04 | 3.69682 | -73.44363 | 28022 ft | 439 kts | 187° |
| 2026-05-06 18:04 | 3.63652 | -73.45367 | 28027 ft | 439 kts | 187° |
| 2026-05-06 18:05 | 3.57654 | -73.46364 | 28023 ft | 439 kts | 187° |
| 2026-05-06 18:05 | 3.51623 | -73.47367 | 28027 ft | 439 kts | 187° |
| 2026-05-06 18:06 | 3.45547 | -73.48378 | 28024 ft | 439 kts | 187° |
| 2026-05-06 18:06 | 3.39552 | -73.49374 | 28024 ft | 439 kts | 187° |
| 2026-05-06 18:07 | 3.33524 | -73.50377 | 28023 ft | 439 kts | 187° |
| 2026-05-06 18:07 | 3.27489 | -73.51379 | 28026 ft | 439 kts | 187° |
| 2026-05-06 18:08 | 3.21453 | -73.52382 | 28024 ft | 439 kts | 187° |
| 2026-05-06 18:08 | 3.15419 | -73.53384 | 28027 ft | 439 kts | 187° |
| 2026-05-06 18:09 | 3.09426 | -73.54379 | 28027 ft | 439 kts | 187° |
| 2026-05-06 18:09 | 3.03395 | -73.55380 | 28026 ft | 439 kts | 187° |
| 2026-05-06 18:10 | 2.97357 | -73.56383 | 28025 ft | 439 kts | 187° |
| 2026-05-06 18:10 | 2.91327 | -73.57384 | 28022 ft | 439 kts | 187° |
| 2026-05-06 18:11 | 2.85331 | -73.58380 | 28028 ft | 439 kts | 187° |
| 2026-05-06 18:11 | 2.79306 | -73.59379 | 28026 ft | 439 kts | 187° |
| 2026-05-06 18:12 | 2.73275 | -73.60381 | 28027 ft | 439 kts | 187° |
| 2026-05-06 18:12 | 2.67273 | -73.61376 | 28029 ft | 439 kts | 187° |
| 2026-05-06 18:13 | 2.61244 | -73.62377 | 28030 ft | 439 kts | 187° |
| 2026-05-06 18:13 | 2.55217 | -73.63376 | 28030 ft | 439 kts | 187° |
| 2026-05-06 18:14 | 2.49183 | -73.64377 | 28028 ft | 439 kts | 187° |
| 2026-05-06 18:14 | 2.43165 | -73.65376 | 28028 ft | 439 kts | 187° |
| 2026-05-06 18:15 | 2.37133 | -73.66376 | 28025 ft | 438 kts | 187° |
| 2026-05-06 18:15 | 2.31146 | -73.67370 | 28026 ft | 439 kts | 187° |
| 2026-05-06 18:16 | 2.25109 | -73.68371 | 28025 ft | 439 kts | 187° |
| 2026-05-06 18:16 | 2.19084 | -73.69370 | 28021 ft | 439 kts | 187° |
| 2026-05-06 18:17 | 2.13061 | -73.70369 | 28019 ft | 438 kts | 187° |
| 2026-05-06 18:17 | 2.07034 | -73.71369 | 28016 ft | 439 kts | 187° |
| 2026-05-06 18:18 | 2.01005 | -73.72368 | 28014 ft | 439 kts | 187° |
| 2026-05-06 18:18 | 1.95013 | -73.73363 | 28013 ft | 438 kts | 187° |
| 2026-05-06 18:19 | 1.88993 | -73.74361 | 28008 ft | 439 kts | 187° |
| 2026-05-06 18:19 | 1.82964 | -73.75361 | 28008 ft | 439 kts | 187° |
| 2026-05-06 18:20 | 1.76927 | -73.76237 | 28005 ft | 438 kts | 183° |
| 2026-05-06 18:20 | 1.70839 | -73.76698 | 28010 ft | 437 kts | 181° |
| 2026-05-06 18:21 | 1.64764 | -73.77047 | 28001 ft | 437 kts | 181° |
| 2026-05-06 18:21 | 1.61760 | -73.77206 | 27997 ft | 436 kts | 181° |
| 2026-05-06 18:21 | 1.58733 | -73.77362 | 27998 ft | 436 kts | 181° |
| 2026-05-06 18:22 | 1.55702 | -73.77515 | 27994 ft | 436 kts | 181° |
| 2026-05-06 18:22 | 1.52667 | -73.77667 | 27995 ft | 437 kts | 181° |
| 2026-05-06 18:22 | 1.49622 | -73.77818 | 27996 ft | 437 kts | 180° |
| 2026-05-06 18:22 | 1.46587 | -73.77968 | 27995 ft | 437 kts | 180° |
| 2026-05-06 18:23 | 1.43540 | -73.78118 | 27990 ft | 437 kts | 180° |
| 2026-05-06 18:23 | 1.40506 | -73.78267 | 27989 ft | 437 kts | 180° |
| 2026-05-06 18:23 | 1.34416 | -73.78565 | 27996 ft | 437 kts | 180° |
| 2026-05-06 18:24 | 1.31376 | -73.78714 | 27992 ft | 437 kts | 180° |
| 2026-05-06 18:24 | 1.28343 | -73.78862 | 27988 ft | 437 kts | 180° |
| 2026-05-06 18:24 | 1.25338 | -73.79008 | 27983 ft | 437 kts | 180° |
| 2026-05-06 18:24 | 1.22308 | -73.79155 | 27987 ft | 438 kts | 180° |
| 2026-05-06 18:25 | 1.19250 | -73.79303 | 27985 ft | 438 kts | 180° |
| 2026-05-06 18:25 | 1.16206 | -73.79451 | 27984 ft | 437 kts | 180° |
| 2026-05-06 18:25 | 1.13172 | -73.79598 | 27980 ft | 437 kts | 180° |
| 2026-05-06 18:25 | 1.10136 | -73.79745 | 27980 ft | 437 kts | 180° |
| 2026-05-06 18:26 | 1.07093 | -73.79893 | 27980 ft | 437 kts | 180° |
| 2026-05-06 18:26 | 1.04050 | -73.80040 | 27979 ft | 437 kts | 180° |
| 2026-05-06 18:26 | 1.01013 | -73.80187 | 27983 ft | 437 kts | 180° |
| 2026-05-06 18:26 | 0.97969 | -73.80334 | 27982 ft | 437 kts | 180° |
| 2026-05-06 18:27 | 0.94949 | -73.80483 | 27980 ft | 427 kts | 180° |
| 2026-05-06 18:27 | 0.92009 | -73.80630 | 27978 ft | 421 kts | 180° |
| 2026-05-06 18:27 | 0.89077 | -73.80772 | 27976 ft | 423 kts | 180° |
| 2026-05-06 18:27 | 0.86130 | -73.80913 | 27980 ft | 425 kts | 180° |
| 2026-05-06 18:28 | 0.83211 | -73.81053 | 27981 ft | 424 kts | 180° |
| 2026-05-06 18:28 | 0.80262 | -73.81195 | 27988 ft | 423 kts | 180° |
| 2026-05-06 18:28 | 0.77317 | -73.81337 | 27982 ft | 423 kts | 180° |
| 2026-05-06 18:28 | 0.74379 | -73.81479 | 27979 ft | 423 kts | 180° |
| 2026-05-06 18:29 | 0.71434 | -73.81620 | 27978 ft | 424 kts | 180° |
| 2026-05-06 18:29 | 0.68488 | -73.81763 | 27981 ft | 424 kts | 180° |
| 2026-05-06 18:29 | 0.65540 | -73.81905 | 27983 ft | 424 kts | 180° |
| 2026-05-06 18:29 | 0.62594 | -73.82048 | 27983 ft | 423 kts | 180° |
| 2026-05-06 18:30 | 0.59655 | -73.82190 | 27981 ft | 423 kts | 180° |
| 2026-05-06 18:30 | 0.56710 | -73.82332 | 27978 ft | 424 kts | 180° |
| 2026-05-06 18:30 | 0.53765 | -73.82475 | 27980 ft | 424 kts | 180° |
| 2026-05-06 18:30 | 0.50821 | -73.82617 | 27980 ft | 424 kts | 180° |
| 2026-05-06 18:31 | 0.47868 | -73.82759 | 27982 ft | 424 kts | 180° |
| 2026-05-06 18:31 | 0.44960 | -73.82900 | 27979 ft | 424 kts | 180° |
| 2026-05-06 18:31 | 0.42017 | -73.83043 | 27980 ft | 423 kts | 180° |
| 2026-05-06 18:31 | 0.39067 | -73.83186 | 27980 ft | 423 kts | 180° |
| 2026-05-06 18:32 | 0.36127 | -73.83328 | 27979 ft | 424 kts | 180° |
| 2026-05-06 18:32 | 0.33184 | -73.83469 | 27981 ft | 424 kts | 180° |
| 2026-05-06 18:32 | 0.30233 | -73.83612 | 27979 ft | 424 kts | 180° |
| 2026-05-06 18:32 | 0.27286 | -73.83754 | 27981 ft | 424 kts | 180° |
| 2026-05-06 18:33 | 0.24338 | -73.83896 | 27979 ft | 424 kts | 180° |
| 2026-05-06 18:33 | 0.21389 | -73.84039 | 27980 ft | 424 kts | 180° |
| 2026-05-06 18:33 | 0.18438 | -73.84181 | 27978 ft | 424 kts | 180° |
| 2026-05-06 18:33 | 0.15487 | -73.84324 | 27981 ft | 424 kts | 180° |
| 2026-05-06 18:34 | 0.12540 | -73.84466 | 27981 ft | 424 kts | 180° |
| 2026-05-06 18:34 | 0.09591 | -73.84609 | 27979 ft | 424 kts | 180° |
| 2026-05-06 18:34 | 0.06637 | -73.84752 | 27979 ft | 424 kts | 180° |
| 2026-05-06 18:34 | 0.03691 | -73.84894 | 27979 ft | 424 kts | 180° |
| 2026-05-06 18:35 | 0.00776 | -73.85035 | 27977 ft | 424 kts | 180° |
| 2026-05-06 18:35 | -0.02182 | -73.85179 | 27977 ft | 424 kts | 180° |
| 2026-05-06 18:35 | -0.05131 | -73.85322 | 27976 ft | 424 kts | 180° |
| 2026-05-06 18:35 | -0.08081 | -73.85464 | 27978 ft | 424 kts | 180° |
| 2026-05-06 18:36 | -0.11037 | -73.85607 | 27978 ft | 424 kts | 180° |
| 2026-05-06 18:36 | -0.13981 | -73.85749 | 27977 ft | 424 kts | 180° |
| 2026-05-06 18:36 | -0.16930 | -73.85891 | 27975 ft | 425 kts | 180° |
| 2026-05-06 18:36 | -0.19884 | -73.86034 | 27973 ft | 425 kts | 180° |
| 2026-05-06 18:37 | -0.22841 | -73.86177 | 27973 ft | 427 kts | 180° |
| 2026-05-06 18:37 | -0.24822 | -73.86271 | 27974 ft | 432 kts | 180° |
| 2026-05-06 18:37 | -0.28888 | -73.86462 | 27978 ft | 441 kts | 180° |
| 2026-05-06 18:37 | -0.31958 | -73.86610 | 27976 ft | 440 kts | 180° |
| 2026-05-06 18:38 | -0.34977 | -73.86759 | 27975 ft | 438 kts | 180° |
| 2026-05-06 18:38 | -0.38016 | -73.86908 | 27972 ft | 437 kts | 180° |
| 2026-05-06 18:38 | -0.41091 | -73.87057 | 27973 ft | 438 kts | 180° |
| 2026-05-06 18:38 | -0.44099 | -73.87203 | 27974 ft | 438 kts | 180° |
| 2026-05-06 18:39 | -0.47151 | -73.87351 | 27973 ft | 439 kts | 180° |
| 2026-05-06 18:39 | -0.50205 | -73.87499 | 27977 ft | 438 kts | 180° |
| 2026-05-06 18:39 | -0.53260 | -73.87648 | 27978 ft | 438 kts | 180° |
| 2026-05-06 18:40 | -0.59305 | -73.87941 | 27980 ft | 438 kts | 180° |
| 2026-05-06 18:40 | -0.62350 | -73.88088 | 27977 ft | 438 kts | 180° |
| 2026-05-06 18:40 | -0.65403 | -73.88236 | 27972 ft | 439 kts | 180° |
| 2026-05-06 18:40 | -0.68457 | -73.88384 | 27971 ft | 439 kts | 180° |
| 2026-05-06 18:41 | -0.71519 | -73.88533 | 27973 ft | 439 kts | 180° |
| 2026-05-06 18:41 | -0.74561 | -73.88680 | 27972 ft | 438 kts | 180° |
| 2026-05-06 18:41 | -0.77614 | -73.88828 | 27973 ft | 438 kts | 180° |
| 2026-05-06 18:41 | -0.80657 | -73.88975 | 27971 ft | 438 kts | 180° |
| 2026-05-06 18:42 | -0.83671 | -73.89121 | 27973 ft | 439 kts | 180° |
| 2026-05-06 18:42 | -0.86727 | -73.89269 | 27977 ft | 439 kts | 180° |
| 2026-05-06 18:42 | -0.89778 | -73.89416 | 27974 ft | 439 kts | 180° |
| 2026-05-06 18:42 | -0.92838 | -73.89565 | 27973 ft | 439 kts | 180° |
| 2026-05-06 18:43 | -0.95888 | -73.89712 | 27976 ft | 438 kts | 180° |
| 2026-05-06 18:43 | -0.98943 | -73.89860 | 27972 ft | 439 kts | 180° |
| 2026-05-06 18:43 | -1.01996 | -73.90008 | 27977 ft | 439 kts | 180° |
| 2026-05-06 18:43 | -1.05042 | -73.90156 | 27978 ft | 439 kts | 180° |
| 2026-05-06 18:44 | -1.08064 | -73.90302 | 27978 ft | 439 kts | 180° |
| 2026-05-06 18:44 | -1.11114 | -73.90449 | 27978 ft | 439 kts | 180° |
| 2026-05-06 18:44 | -1.14171 | -73.90598 | 27979 ft | 439 kts | 180° |
| 2026-05-06 18:44 | -1.17222 | -73.90746 | 27978 ft | 439 kts | 180° |
| 2026-05-06 18:45 | -1.20277 | -73.90894 | 27975 ft | 439 kts | 180° |
| 2026-05-06 18:45 | -1.23328 | -73.91042 | 27978 ft | 438 kts | 180° |
| 2026-05-06 18:45 | -1.26353 | -73.91190 | 27974 ft | 432 kts | 180° |
| 2026-05-06 18:45 | -1.28333 | -73.91287 | 27976 ft | 431 kts | 180° |
| 2026-05-06 18:46 | -1.32348 | -73.91479 | 27975 ft | 432 kts | 180° |
| 2026-05-06 18:46 | -1.35322 | -73.91622 | 27976 ft | 433 kts | 180° |
| 2026-05-06 18:46 | -1.38333 | -73.91768 | 27978 ft | 433 kts | 180° |
| 2026-05-06 18:46 | -1.41334 | -73.91914 | 27977 ft | 432 kts | 180° |
| 2026-05-06 18:47 | -1.44339 | -73.92059 | 27976 ft | 432 kts | 180° |
| 2026-05-06 18:47 | -1.47338 | -73.92204 | 27979 ft | 432 kts | 180° |
| 2026-05-06 18:47 | -1.50343 | -73.92348 | 27978 ft | 432 kts | 180° |
| 2026-05-06 18:47 | -1.53351 | -73.92493 | 27978 ft | 432 kts | 180° |
| 2026-05-06 18:48 | -1.55337 | -73.92590 | 27979 ft | 432 kts | 180° |
| 2026-05-06 18:48 | -1.58340 | -73.92736 | 27977 ft | 432 kts | 180° |
| 2026-05-06 18:48 | -1.61347 | -73.92881 | 27977 ft | 432 kts | 180° |
| 2026-05-06 18:48 | -1.64350 | -73.93027 | 27977 ft | 432 kts | 180° |
| 2026-05-06 18:49 | -1.67350 | -73.93172 | 27978 ft | 432 kts | 180° |
| 2026-05-06 18:49 | -1.70359 | -73.93318 | 27978 ft | 432 kts | 180° |
| 2026-05-06 18:49 | -1.73357 | -73.93462 | 27978 ft | 432 kts | 180° |
| 2026-05-06 18:49 | -1.76362 | -73.93606 | 27977 ft | 432 kts | 180° |
| 2026-05-06 18:50 | -1.79370 | -73.93752 | 27978 ft | 432 kts | 180° |
| 2026-05-06 18:50 | -1.82367 | -73.93896 | 27976 ft | 432 kts | 180° |
| 2026-05-06 18:50 | -1.85376 | -73.94042 | 27979 ft | 432 kts | 180° |
| 2026-05-06 18:50 | -1.88377 | -73.94186 | 27981 ft | 432 kts | 180° |
| 2026-05-06 18:51 | -1.91346 | -73.94330 | 27978 ft | 432 kts | 181° |
| 2026-05-06 18:51 | -1.94355 | -73.94475 | 27979 ft | 432 kts | 181° |
| 2026-05-06 18:51 | -1.97364 | -73.94621 | 27982 ft | 432 kts | 181° |
| 2026-05-06 18:51 | -2.00362 | -73.94766 | 27978 ft | 432 kts | 181° |
| 2026-05-06 18:52 | -2.03373 | -73.94912 | 27984 ft | 432 kts | 181° |
| 2026-05-06 18:52 | -2.06372 | -73.95057 | 27986 ft | 432 kts | 181° |
| 2026-05-06 18:52 | -2.09343 | -73.95202 | 27982 ft | 432 kts | 181° |
| 2026-05-06 18:52 | -2.12348 | -73.95347 | 27984 ft | 432 kts | 181° |
| 2026-05-06 18:53 | -2.15349 | -73.95492 | 27983 ft | 432 kts | 181° |
| 2026-05-06 18:53 | -2.18360 | -73.95638 | 27983 ft | 432 kts | 181° |
| 2026-05-06 18:53 | -2.21367 | -73.95784 | 27983 ft | 432 kts | 181° |
| 2026-05-06 18:53 | -2.24376 | -73.95930 | 27983 ft | 432 kts | 181° |
| 2026-05-06 18:54 | -2.27382 | -73.96076 | 27982 ft | 432 kts | 181° |
| 2026-05-06 18:54 | -2.30381 | -73.96221 | 27982 ft | 433 kts | 181° |
| 2026-05-06 18:54 | -2.33403 | -73.96367 | 27983 ft | 433 kts | 181° |
| 2026-05-06 18:54 | -2.36411 | -73.96513 | 27980 ft | 433 kts | 181° |
| 2026-05-06 18:55 | -2.39416 | -73.96659 | 27984 ft | 433 kts | 181° |
| 2026-05-06 18:55 | -2.42439 | -73.96805 | 27983 ft | 433 kts | 181° |
| 2026-05-06 18:55 | -2.45449 | -73.96952 | 27981 ft | 433 kts | 181° |
| 2026-05-06 18:55 | -2.48462 | -73.97098 | 27981 ft | 433 kts | 181° |
| 2026-05-06 18:56 | -2.51483 | -73.97245 | 27978 ft | 433 kts | 181° |
| 2026-05-06 18:56 | -2.54494 | -73.97391 | 27979 ft | 433 kts | 181° |
| 2026-05-06 18:56 | -2.57506 | -73.97537 | 27980 ft | 433 kts | 181° |
| 2026-05-06 18:56 | -2.60478 | -73.97681 | 27978 ft | 433 kts | 181° |
| 2026-05-06 18:57 | -2.63487 | -73.97827 | 27980 ft | 433 kts | 181° |
| 2026-05-06 18:57 | -2.66503 | -73.97973 | 27981 ft | 434 kts | 181° |
| 2026-05-06 18:57 | -2.69512 | -73.98119 | 27980 ft | 434 kts | 181° |
| 2026-05-06 18:57 | -2.72531 | -73.98265 | 27983 ft | 434 kts | 181° |
| 2026-05-06 18:58 | -2.75545 | -73.98412 | 27986 ft | 433 kts | 181° |
| 2026-05-06 18:58 | -2.78558 | -73.98558 | 27984 ft | 433 kts | 181° |
| 2026-05-06 18:58 | -2.81573 | -73.98704 | 27985 ft | 433 kts | 181° |
| 2026-05-06 18:58 | -2.84580 | -73.98850 | 27985 ft | 433 kts | 181° |
| 2026-05-06 18:59 | -2.87602 | -73.98996 | 27984 ft | 434 kts | 181° |
| 2026-05-06 18:59 | -2.90627 | -73.99143 | 27986 ft | 434 kts | 181° |
| 2026-05-06 18:59 | -2.93639 | -73.99290 | 27984 ft | 434 kts | 181° |
| 2026-05-06 18:59 | -2.96653 | -73.99436 | 27984 ft | 434 kts | 181° |
| 2026-05-06 19:00 | -2.99667 | -73.99582 | 27986 ft | 433 kts | 181° |
| 2026-05-06 19:00 | -3.02678 | -73.99727 | 27986 ft | 433 kts | 181° |
| 2026-05-06 19:00 | -3.05655 | -73.99872 | 27986 ft | 433 kts | 181° |
| 2026-05-06 19:00 | -3.08705 | -74.00020 | 27985 ft | 434 kts | 181° |
| 2026-05-06 19:01 | -3.11719 | -74.00167 | 27986 ft | 434 kts | 181° |
| 2026-05-06 19:01 | -3.14698 | -74.00311 | 27986 ft | 434 kts | 181° |
| 2026-05-06 19:01 | -3.17711 | -74.00458 | 27986 ft | 434 kts | 181° |
| 2026-05-06 19:01 | -3.20723 | -74.00604 | 27986 ft | 433 kts | 181° |
| 2026-05-06 19:02 | -3.23742 | -74.00750 | 27988 ft | 434 kts | 181° |
| 2026-05-06 19:02 | -3.26760 | -74.00897 | 27991 ft | 433 kts | 181° |
| 2026-05-06 19:02 | -3.29771 | -74.01043 | 27986 ft | 433 kts | 181° |
| 2026-05-06 19:02 | -3.32792 | -74.01190 | 27985 ft | 434 kts | 181° |
| 2026-05-06 19:03 | -3.35804 | -74.01336 | 27987 ft | 434 kts | 181° |
| 2026-05-06 19:03 | -3.38825 | -74.01484 | 27986 ft | 434 kts | 181° |
| 2026-05-06 19:03 | -3.41839 | -74.01630 | 27987 ft | 434 kts | 181° |
| 2026-05-06 19:03 | -3.44854 | -74.01775 | 27987 ft | 433 kts | 181° |
| 2026-05-06 19:04 | -3.47876 | -74.01921 | 27986 ft | 433 kts | 181° |
| 2026-05-06 19:04 | -3.50885 | -74.02067 | 27989 ft | 434 kts | 181° |
| 2026-05-06 19:04 | -3.53900 | -74.02213 | 27987 ft | 434 kts | 181° |
| 2026-05-06 19:04 | -3.56915 | -74.02359 | 27991 ft | 434 kts | 181° |
| 2026-05-06 19:05 | -3.59937 | -74.02506 | 27988 ft | 434 kts | 181° |
| 2026-05-06 19:05 | -3.62955 | -74.02653 | 27988 ft | 434 kts | 181° |
| 2026-05-06 19:05 | -3.65970 | -74.02799 | 27986 ft | 434 kts | 181° |
| 2026-05-06 19:05 | -3.68984 | -74.02947 | 27985 ft | 434 kts | 181° |
| 2026-05-06 19:06 | -3.72005 | -74.03094 | 27987 ft | 434 kts | 181° |
| 2026-05-06 19:06 | -3.74987 | -74.03239 | 27985 ft | 434 kts | 181° |
| 2026-05-06 19:06 | -3.78002 | -74.03386 | 27984 ft | 434 kts | 181° |
| 2026-05-06 19:06 | -3.81024 | -74.03533 | 27985 ft | 434 kts | 181° |
| 2026-05-06 19:07 | -3.84044 | -74.03681 | 27986 ft | 434 kts | 180° |
| 2026-05-06 19:07 | -3.87064 | -74.03828 | 27984 ft | 434 kts | 180° |
| 2026-05-06 19:07 | -3.90083 | -74.03976 | 27985 ft | 434 kts | 180° |
| 2026-05-06 19:07 | -3.93072 | -74.04122 | 27984 ft | 434 kts | 180° |
| 2026-05-06 19:08 | -3.96095 | -74.04268 | 27986 ft | 435 kts | 180° |
| 2026-05-06 19:08 | -3.99119 | -74.04415 | 27986 ft | 435 kts | 180° |
| 2026-05-06 19:08 | -4.02136 | -74.04562 | 27984 ft | 435 kts | 180° |
| 2026-05-06 19:08 | -4.05171 | -74.04710 | 27987 ft | 435 kts | 180° |
| 2026-05-06 19:09 | -4.08196 | -74.04858 | 27986 ft | 435 kts | 180° |
| 2026-05-06 19:09 | -4.11227 | -74.05005 | 27985 ft | 435 kts | 180° |
| 2026-05-06 19:09 | -4.14263 | -74.05152 | 27985 ft | 437 kts | 180° |
| 2026-05-06 19:09 | -4.17307 | -74.05545 | 27985 ft | 445 kts | 188° |
| 2026-05-06 19:10 | -4.20350 | -74.06189 | 27988 ft | 447 kts | 191° |
| 2026-05-06 19:10 | -4.23373 | -74.06915 | 27988 ft | 446 kts | 192° |
| 2026-05-06 19:10 | -4.26369 | -74.07674 | 27982 ft | 445 kts | 192° |
| 2026-05-06 19:10 | -4.29327 | -74.08445 | 27981 ft | 445 kts | 193° |
| 2026-05-06 19:11 | -4.32325 | -74.09238 | 27980 ft | 446 kts | 193° |
| 2026-05-06 19:11 | -4.35333 | -74.10041 | 27983 ft | 446 kts | 193° |
| 2026-05-06 19:11 | -4.38333 | -74.10847 | 27982 ft | 446 kts | 193° |
| 2026-05-06 19:11 | -4.41338 | -74.11660 | 27977 ft | 446 kts | 193° |
| 2026-05-06 19:12 | -4.44334 | -74.12471 | 27980 ft | 446 kts | 193° |
| 2026-05-06 19:12 | -4.47324 | -74.13283 | 27981 ft | 446 kts | 193° |
| 2026-05-06 19:12 | -4.50312 | -74.14096 | 27979 ft | 446 kts | 193° |
| 2026-05-06 19:12 | -4.53321 | -74.14914 | 27984 ft | 447 kts | 193° |
| 2026-05-06 19:13 | -4.56329 | -74.15734 | 27978 ft | 446 kts | 193° |
| 2026-05-06 19:13 | -4.59291 | -74.16543 | 27977 ft | 446 kts | 193° |
| 2026-05-06 19:13 | -4.62319 | -74.17370 | 27979 ft | 445 kts | 193° |
| 2026-05-06 19:13 | -4.65268 | -74.18176 | 27977 ft | 445 kts | 193° |
| 2026-05-06 19:14 | -4.68267 | -74.18995 | 27979 ft | 446 kts | 193° |
| 2026-05-06 19:14 | -4.71265 | -74.19815 | 27979 ft | 446 kts | 193° |
| 2026-05-06 19:14 | -4.74256 | -74.20633 | 27978 ft | 446 kts | 193° |
| 2026-05-06 19:14 | -4.77245 | -74.21452 | 27982 ft | 446 kts | 193° |
| 2026-05-06 19:15 | -4.80241 | -74.22273 | 27991 ft | 446 kts | 193° |
| 2026-05-06 19:15 | -4.83242 | -74.23094 | 27998 ft | 447 kts | 193° |
| 2026-05-06 19:15 | -4.86234 | -74.23914 | 27986 ft | 446 kts | 193° |
| 2026-05-06 19:15 | -4.89226 | -74.24735 | 27978 ft | 445 kts | 193° |
| 2026-05-06 19:16 | -4.92219 | -74.25556 | 27973 ft | 445 kts | 193° |
| 2026-05-06 19:16 | -4.95199 | -74.26372 | 27971 ft | 445 kts | 193° |
| 2026-05-06 19:16 | -4.98194 | -74.27193 | 27973 ft | 446 kts | 193° |
| 2026-05-06 19:16 | -5.01193 | -74.28015 | 27972 ft | 446 kts | 193° |
| 2026-05-06 19:17 | -5.04187 | -74.28836 | 27972 ft | 446 kts | 193° |
| 2026-05-06 19:17 | -5.07179 | -74.29657 | 27975 ft | 446 kts | 193° |
| 2026-05-06 19:17 | -5.10137 | -74.30469 | 27971 ft | 445 kts | 193° |
| 2026-05-06 19:17 | -5.13161 | -74.31299 | 27973 ft | 445 kts | 193° |
| 2026-05-06 19:18 | -5.16111 | -74.32108 | 27976 ft | 446 kts | 193° |
| 2026-05-06 19:18 | -5.19114 | -74.32932 | 27981 ft | 446 kts | 193° |
| 2026-05-06 19:18 | -5.22105 | -74.33753 | 27979 ft | 447 kts | 193° |
| 2026-05-06 19:18 | -5.25104 | -74.34577 | 27975 ft | 446 kts | 193° |
| 2026-05-06 19:19 | -5.28095 | -74.35398 | 27972 ft | 445 kts | 193° |
| 2026-05-06 19:19 | -5.31089 | -74.36221 | 27972 ft | 446 kts | 194° |
| 2026-05-06 19:19 | -5.34082 | -74.37041 | 27969 ft | 446 kts | 194° |
| 2026-05-06 19:19 | -5.37080 | -74.37864 | 27972 ft | 447 kts | 194° |
| 2026-05-06 19:20 | -5.40077 | -74.38688 | 27971 ft | 446 kts | 194° |
| 2026-05-06 19:20 | -5.43075 | -74.39512 | 27969 ft | 446 kts | 194° |
| 2026-05-06 19:20 | -5.46066 | -74.40335 | 27969 ft | 446 kts | 194° |
| 2026-05-06 19:20 | -5.49064 | -74.41159 | 27972 ft | 446 kts | 194° |
| 2026-05-06 19:21 | -5.52059 | -74.41981 | 27971 ft | 446 kts | 194° |
| 2026-05-06 19:21 | -5.55062 | -74.42806 | 27970 ft | 447 kts | 194° |
| 2026-05-06 19:21 | -5.58071 | -74.43633 | 27971 ft | 447 kts | 194° |
| 2026-05-06 19:21 | -5.61075 | -74.44459 | 27980 ft | 447 kts | 194° |
| 2026-05-06 19:22 | -5.64036 | -74.45274 | 27976 ft | 447 kts | 194° |
| 2026-05-06 19:22 | -5.67033 | -74.46097 | 27971 ft | 446 kts | 194° |
| 2026-05-06 19:22 | -5.70025 | -74.46920 | 27968 ft | 446 kts | 194° |
| 2026-05-06 19:22 | -5.73028 | -74.47746 | 27968 ft | 446 kts | 194° |
| 2026-05-06 19:23 | -5.76025 | -74.48571 | 27970 ft | 447 kts | 194° |
| 2026-05-06 19:23 | -5.79028 | -74.49397 | 27967 ft | 447 kts | 194° |
| 2026-05-06 19:23 | -5.82061 | -74.50232 | 27965 ft | 446 kts | 194° |
| 2026-05-06 19:23 | -5.85021 | -74.51047 | 27965 ft | 446 kts | 194° |
| 2026-05-06 19:24 | -5.88018 | -74.51872 | 27965 ft | 446 kts | 194° |
| 2026-05-06 19:24 | -5.91010 | -74.52695 | 27962 ft | 446 kts | 194° |
| 2026-05-06 19:24 | -5.94003 | -74.53518 | 27965 ft | 446 kts | 194° |
| 2026-05-06 19:24 | -5.97015 | -74.54348 | 27968 ft | 447 kts | 194° |
| 2026-05-06 19:25 | -6.00016 | -74.55174 | 27971 ft | 447 kts | 194° |
| 2026-05-06 19:25 | -6.02967 | -74.55987 | 27970 ft | 446 kts | 194° |
| 2026-05-06 19:25 | -6.06003 | -74.56823 | 27970 ft | 446 kts | 194° |
| 2026-05-06 19:25 | -6.08955 | -74.57637 | 27966 ft | 446 kts | 194° |
| 2026-05-06 19:26 | -6.11953 | -74.58462 | 27970 ft | 446 kts | 194° |
| 2026-05-06 19:26 | -6.14944 | -74.59286 | 27968 ft | 446 kts | 194° |
| 2026-05-06 19:26 | -6.17937 | -74.60110 | 27970 ft | 446 kts | 194° |
| 2026-05-06 19:26 | -6.20935 | -74.60936 | 27971 ft | 446 kts | 194° |
| 2026-05-06 19:27 | -6.23934 | -74.61763 | 27972 ft | 446 kts | 194° |
| 2026-05-06 19:27 | -6.26925 | -74.62588 | 27970 ft | 446 kts | 194° |
| 2026-05-06 19:27 | -6.29920 | -74.63413 | 27974 ft | 446 kts | 194° |
| 2026-05-06 19:27 | -6.32909 | -74.64237 | 27972 ft | 446 kts | 194° |
| 2026-05-06 19:28 | -6.35906 | -74.65064 | 27972 ft | 446 kts | 194° |
| 2026-05-06 19:28 | -6.38867 | -74.65880 | 27972 ft | 446 kts | 194° |
| 2026-05-06 19:28 | -6.41860 | -74.66706 | 27973 ft | 446 kts | 194° |
| 2026-05-06 19:28 | -6.44848 | -74.67531 | 27974 ft | 446 kts | 194° |
| 2026-05-06 19:29 | -6.47842 | -74.68357 | 27976 ft | 446 kts | 194° |
| 2026-05-06 19:29 | -6.50842 | -74.69185 | 27975 ft | 446 kts | 194° |
| 2026-05-06 19:29 | -6.53835 | -74.70010 | 27977 ft | 446 kts | 194° |
| 2026-05-06 19:29 | -6.56828 | -74.70837 | 27979 ft | 446 kts | 194° |
| 2026-05-06 19:30 | -6.59816 | -74.71661 | 27979 ft | 446 kts | 194° |
| 2026-05-06 19:30 | -6.62805 | -74.72487 | 27981 ft | 446 kts | 194° |
| 2026-05-06 19:30 | -6.65794 | -74.73311 | 27981 ft | 446 kts | 194° |
| 2026-05-06 19:30 | -6.68793 | -74.74140 | 27983 ft | 446 kts | 194° |
| 2026-05-06 19:31 | -6.71788 | -74.74968 | 27979 ft | 446 kts | 194° |
| 2026-05-06 19:31 | -6.74782 | -74.75795 | 27979 ft | 446 kts | 194° |
| 2026-05-06 19:31 | -6.80771 | -74.77450 | 27981 ft | 446 kts | 194° |
| 2026-05-06 19:32 | -6.82750 | -74.77997 | 27982 ft | 446 kts | 194° |
| 2026-05-06 19:32 | -6.86724 | -74.79096 | 27986 ft | 446 kts | 194° |
| 2026-05-06 19:32 | -6.88748 | -74.79655 | 27987 ft | 446 kts | 194° |
| 2026-05-06 19:32 | -6.91741 | -74.80483 | 27987 ft | 447 kts | 194° |
| 2026-05-06 19:33 | -6.95720 | -74.81584 | 27987 ft | 447 kts | 194° |
| 2026-05-06 19:33 | -6.98719 | -74.82413 | 27988 ft | 447 kts | 194° |
| 2026-05-06 19:33 | -7.00743 | -74.82973 | 27987 ft | 447 kts | 194° |
| 2026-05-06 19:33 | -7.03738 | -74.83801 | 27989 ft | 446 kts | 194° |
| 2026-05-06 19:34 | -7.06733 | -74.84629 | 27990 ft | 446 kts | 194° |
| 2026-05-06 19:34 | -7.09694 | -74.85449 | 27991 ft | 446 kts | 194° |
| 2026-05-06 19:34 | -7.12697 | -74.86279 | 27993 ft | 447 kts | 194° |
| 2026-05-06 19:34 | -7.15696 | -74.87109 | 27991 ft | 447 kts | 194° |
| 2026-05-06 19:35 | -7.18693 | -74.87939 | 27990 ft | 447 kts | 194° |
| 2026-05-06 19:35 | -7.21697 | -74.88771 | 27992 ft | 447 kts | 194° |
| 2026-05-06 19:35 | -7.24688 | -74.89599 | 27992 ft | 446 kts | 194° |
| 2026-05-06 19:35 | -7.27656 | -74.90421 | 27990 ft | 446 kts | 194° |
| 2026-05-06 19:36 | -7.30651 | -74.91250 | 27991 ft | 446 kts | 194° |
| 2026-05-06 19:36 | -7.33649 | -74.92080 | 27989 ft | 446 kts | 194° |
| 2026-05-06 19:36 | -7.36647 | -74.92911 | 27992 ft | 447 kts | 194° |
| 2026-05-06 19:36 | -7.39644 | -74.93741 | 27989 ft | 446 kts | 194° |
| 2026-05-06 19:37 | -7.42643 | -74.94572 | 27991 ft | 446 kts | 194° |
| 2026-05-06 19:37 | -7.45643 | -74.95403 | 27993 ft | 446 kts | 194° |
| 2026-05-06 19:37 | -7.48631 | -74.96232 | 27992 ft | 446 kts | 194° |
| 2026-05-06 19:37 | -7.51621 | -74.97060 | 27993 ft | 446 kts | 194° |
| 2026-05-06 19:38 | -7.54576 | -74.97879 | 27994 ft | 446 kts | 194° |
| 2026-05-06 19:38 | -7.57573 | -74.98710 | 27992 ft | 446 kts | 194° |
| 2026-05-06 19:38 | -7.60572 | -74.99542 | 27993 ft | 446 kts | 194° |
| 2026-05-06 19:38 | -7.63557 | -75.00370 | 27995 ft | 446 kts | 194° |
| 2026-05-06 19:39 | -7.66553 | -75.01201 | 27993 ft | 446 kts | 194° |
| 2026-05-06 19:39 | -7.69549 | -75.02032 | 27993 ft | 446 kts | 194° |
| 2026-05-06 19:39 | -7.72537 | -75.02862 | 27993 ft | 446 kts | 194° |
| 2026-05-06 19:39 | -7.75534 | -75.03694 | 27994 ft | 446 kts | 194° |
| 2026-05-06 19:40 | -7.78536 | -75.04527 | 27993 ft | 446 kts | 194° |
| 2026-05-06 19:40 | -7.81535 | -75.05359 | 27992 ft | 446 kts | 194° |
| 2026-05-06 19:40 | -7.84485 | -75.06178 | 27993 ft | 446 kts | 194° |
| 2026-05-06 19:40 | -7.87485 | -75.07011 | 27995 ft | 446 kts | 194° |
| 2026-05-06 19:41 | -7.90474 | -75.07841 | 27993 ft | 447 kts | 194° |
| 2026-05-06 19:41 | -7.93479 | -75.08676 | 27993 ft | 447 kts | 194° |
| 2026-05-06 19:41 | -7.96469 | -75.09506 | 27994 ft | 446 kts | 195° |
| 2026-05-06 19:41 | -7.99470 | -75.10339 | 27995 ft | 446 kts | 195° |
| 2026-05-06 19:42 | -8.02464 | -75.11171 | 27992 ft | 446 kts | 195° |
| 2026-05-06 19:42 | -8.05463 | -75.12005 | 27993 ft | 447 kts | 195° |
| 2026-05-06 19:42 | -8.08467 | -75.12840 | 27994 ft | 447 kts | 195° |
| 2026-05-06 19:42 | -8.11463 | -75.13673 | 27994 ft | 447 kts | 195° |
| 2026-05-06 19:43 | -8.14467 | -75.14509 | 27995 ft | 447 kts | 195° |
| 2026-05-06 19:43 | -8.17433 | -75.15334 | 27994 ft | 447 kts | 195° |
| 2026-05-06 19:43 | -8.20436 | -75.16170 | 27991 ft | 447 kts | 195° |
| 2026-05-06 19:43 | -8.23438 | -75.17006 | 27992 ft | 447 kts | 195° |
| 2026-05-06 19:44 | -8.26440 | -75.17842 | 27994 ft | 447 kts | 195° |
| 2026-05-06 19:44 | -8.29443 | -75.18677 | 27991 ft | 447 kts | 195° |
| 2026-05-06 19:44 | -8.32449 | -75.19514 | 27986 ft | 447 kts | 195° |
| 2026-05-06 19:44 | -8.35460 | -75.20353 | 27990 ft | 447 kts | 195° |
| 2026-05-06 19:45 | -8.38419 | -75.21177 | 27990 ft | 448 kts | 195° |
| 2026-05-06 19:45 | -8.41426 | -75.22014 | 27987 ft | 447 kts | 195° |
| 2026-05-06 19:45 | -8.44433 | -75.22853 | 27988 ft | 447 kts | 195° |
| 2026-05-06 19:45 | -8.47435 | -75.23690 | 27988 ft | 447 kts | 195° |
| 2026-05-06 19:46 | -8.50441 | -75.24528 | 27834 ft | 449 kts | 195° |
| 2026-05-06 19:46 | -8.53449 | -75.25370 | 27433 ft | 445 kts | 195° |
| 2026-05-06 19:46 | -8.56406 | -75.26200 | 26521 ft | 436 kts | 195° |
| 2026-05-06 19:46 | -8.59251 | -75.27004 | 25134 ft | 422 kts | 194° |
| 2026-05-06 19:47 | -8.62084 | -75.27796 | 24550 ft | 426 kts | 194° |
| 2026-05-06 19:47 | -8.64927 | -75.28583 | 24170 ft | 416 kts | 194° |
| 2026-05-06 19:47 | -8.67703 | -75.29356 | 23779 ft | 413 kts | 194° |
| 2026-05-06 19:47 | -8.70472 | -75.30128 | 23356 ft | 412 kts | 194° |
| 2026-05-06 19:48 | -8.73223 | -75.30893 | 22889 ft | 407 kts | 194° |
| 2026-05-06 19:48 | -8.75944 | -75.31649 | 22436 ft | 403 kts | 194° |
| 2026-05-06 19:48 | -8.78635 | -75.32399 | 21779 ft | 398 kts | 194° |
| 2026-05-06 19:48 | -8.81268 | -75.33138 | 20549 ft | 385 kts | 194° |
| 2026-05-06 19:49 | -8.83814 | -75.33861 | 19106 ft | 374 kts | 195° |
| 2026-05-06 19:49 | -8.86045 | -75.35045 | 17600 ft | 367 kts | 219° |
| 2026-05-06 19:49 | -8.87788 | -75.36882 | 16118 ft | 357 kts | 228° |
| 2026-05-06 19:49 | -8.89329 | -75.38802 | 14754 ft | 348 kts | 231° |
| 2026-05-06 19:50 | -8.90768 | -75.40736 | 13419 ft | 339 kts | 232° |
| 2026-05-06 19:50 | -8.92121 | -75.42646 | 12125 ft | 328 kts | 233° |
| 2026-05-06 19:50 | -8.93418 | -75.44531 | 11114 ft | 329 kts | 234° |
| 2026-05-06 19:50 | -8.94650 | -75.46449 | 10687 ft | 323 kts | 240° |
| 2026-05-06 19:51 | -8.95553 | -75.48554 | 10354 ft | 327 kts | 251° |
| 2026-05-06 19:51 | -8.96193 | -75.50754 | 10180 ft | 324 kts | 253° |
| 2026-05-06 19:51 | -8.96790 | -75.52953 | 10089 ft | 324 kts | 252° |
| 2026-05-06 19:51 | -8.97460 | -75.55121 | 10046 ft | 323 kts | 251° |
| 2026-05-06 19:52 | -8.98162 | -75.57277 | 10025 ft | 310 kts | 250° |
| 2026-05-06 19:52 | -8.98801 | -75.59234 | 9997 ft | 296 kts | 250° |
| 2026-05-06 19:52 | -8.99435 | -75.61207 | 10002 ft | 294 kts | 254° |
| 2026-05-06 19:52 | -8.99863 | -75.63237 | 10013 ft | 294 kts | 258° |
| 2026-05-06 19:53 | -9.00210 | -75.65274 | 10006 ft | 294 kts | 261° |
| 2026-05-06 19:53 | -9.00334 | -75.67340 | 10020 ft | 285 kts | 268° |
| 2026-05-06 19:53 | -9.00341 | -75.69346 | 10007 ft | 285 kts | 269° |
| 2026-05-06 19:53 | -9.00316 | -75.71340 | 10000 ft | 285 kts | 269° |
| 2026-05-06 19:54 | -9.00275 | -75.73348 | 10008 ft | 285 kts | 270° |
| 2026-05-06 19:54 | -9.00228 | -75.75351 | 10014 ft | 285 kts | 270° |
| 2026-05-06 19:54 | -9.00159 | -75.77348 | 10017 ft | 285 kts | 272° |
| 2026-05-06 19:54 | -8.99999 | -75.79345 | 10028 ft | 285 kts | 274° |
| 2026-05-06 19:55 | -8.99814 | -75.81310 | 10028 ft | 285 kts | 275° |
| 2026-05-06 19:55 | -8.99614 | -75.83282 | 10028 ft | 272 kts | 275° |
| 2026-05-06 19:55 | -8.99411 | -75.85198 | 10037 ft | 275 kts | 275° |
| 2026-05-06 19:55 | -8.99204 | -75.87135 | 9957 ft | 276 kts | 275° |
| 2026-05-06 19:56 | -8.98999 | -75.89033 | 9528 ft | 265 kts | 275° |
| 2026-05-06 19:56 | -8.98799 | -75.90848 | 8866 ft | 255 kts | 276° |
| 2026-05-06 19:56 | -8.98694 | -75.92597 | 8060 ft | 249 kts | 265° |
| 2026-05-06 19:56 | -8.99281 | -75.94206 | 7240 ft | 244 kts | 241° |
| 2026-05-06 19:57 | -9.00099 | -75.95646 | 6819 ft | 225 kts | 236° |
| 2026-05-06 19:57 | -9.01099 | -75.96772 | 6350 ft | 207 kts | 223° |
| 2026-05-06 19:57 | -9.02189 | -75.97664 | 5731 ft | 199 kts | 213° |
| 2026-05-06 19:57 | -9.03433 | -75.98330 | 5381 ft | 200 kts | 199° |
| 2026-05-06 19:58 | -9.04796 | -75.98608 | 5196 ft | 201 kts | 186° |
| 2026-05-06 19:58 | -9.06180 | -75.98777 | 5040 ft | 203 kts | 186° |
| 2026-05-06 19:58 | -9.07553 | -75.98920 | 4602 ft | 200 kts | 185° |
| 2026-05-06 19:58 | -9.08912 | -75.99048 | 4303 ft | 185 kts | 185° |
| 2026-05-06 19:59 | -9.10200 | -75.99157 | 4167 ft | 186 kts | 184° |
| 2026-05-06 19:59 | -9.11439 | -75.99256 | 4100 ft | 179 kts | 184° |
| 2026-05-06 19:59 | -9.12680 | -75.99352 | 4071 ft | 179 kts | 184° |
| 2026-05-06 19:59 | -9.13921 | -75.99445 | 4050 ft | 179 kts | 184° |
| 2026-05-06 20:00 | -9.15164 | -75.99483 | 4053 ft | 179 kts | 180° |
| 2026-05-06 20:00 | -9.16419 | -75.99476 | 4068 ft | 182 kts | 179° |
| 2026-05-06 20:00 | -9.17671 | -75.99466 | 4063 ft | 181 kts | 181° |
| 2026-05-06 20:00 | -9.18913 | -75.99468 | 3625 ft | 177 kts | 180° |
| 2026-05-06 20:01 | -9.20148 | -75.99473 | 3298 ft | 171 kts | 178° |
| 2026-05-06 20:01 | -9.21422 | -75.99451 | 3173 ft | 202 kts | 180° |
| 2026-05-06 20:01 | -9.22793 | -75.99551 | 2991 ft | 178 kts | 189° |
| 2026-05-06 20:01 | -9.23914 | -75.99803 | 2864 ft | 155 kts | 191° |
| 2026-05-06 20:02 | -9.25027 | -76.00014 | 2767 ft | 174 kts | 186° |
| 2026-05-06 20:02 | -9.26249 | -76.00186 | 2691 ft | 166 kts | 185° |
| 2026-05-06 20:02 | -9.27320 | -76.00304 | 2403 ft | 148 kts | 188° |
| 2026-05-06 20:02 | -9.28284 | -76.00437 | 2121 ft | 132 kts | 182° |
| 2026-05-06 20:03 | -9.28919 | -76.00503 | 2114 ft | 57 kts | 188° |
| 2026-05-06 20:03 | -9.29267 | -76.00536 | 2116 ft | 39 kts | 185° |
| 2026-05-06 20:03 | -9.29511 | -76.00557 | 2116 ft | 30 kts | 169° |
| 2026-05-06 20:03 | -9.29628 | -76.00519 | 2119 ft | 12 kts | 167° |
| 2026-05-06 20:04 | -9.29669 | -76.00538 | 2121 ft | 0 kts | 224° |